»·PEaware :: N5GL KSNA-KPHX

N5GL :: KSNA-KPHX

FLIGHT INFORMATION

Flight Status: Arrived
Operator: Privately registered:
United States
More flights under this callsign
Pilot: Georg L. (13308)
Aircraft: SOCATA TBM-900
(TBM9)
More flights by this aircraft type
Origin: KSNA John Wayne-Orange Co
United States
Destination: KPHX Phoenix Sky Harbor Intl
United States
More flights between these airports :: More routes between these airports
Route: PIGGN2 CNERY BLH BLH5
File this flight plan on PilotEdge
Remarks:
Altitude:
(Current/Filed)
31,000ft
Speed:
(Current/Filed)
318kts
Departed: 21-Apr-20 10:16 AM
Arrived: 21-Apr-20 11:17 AM
Distance/Time
Traveled:
293nm/1:01
Distance/Time
To Go:
Arrived

Flight Plot

Page will automatically refresh every two minutes.

Flight plan parsing failed; only flown route is shown


Map Options




Map Legend


Flown Route
Filed Route
Departure Airport
Arrival Airport
Navaid (VOR, NDB)
Fix

Horizontal Profiles

Position Reports

Time Latitude Longitude Heading Altitude Ground
Speed
21-Apr-20 09:48 33.665707 -117.872589 11 59ft 0kts
21-Apr-20 09:49 33.665707 -117.872589 11 59ft 0kts
21-Apr-20 09:50 33.665707 -117.872589 11 59ft 0kts
21-Apr-20 09:51 33.665711 -117.872588 11 59ft 0kts
21-Apr-20 09:52 33.666069 -117.872812 355 59ft 0kts
21-Apr-20 09:53 33.666073 -117.872812 355 59ft 0kts
21-Apr-20 09:54 33.666073 -117.872812 355 59ft 0kts
21-Apr-20 09:55 33.666073 -117.872812 355 59ft 0kts
21-Apr-20 09:56 33.666073 -117.872812 355 59ft 0kts
21-Apr-20 09:57 33.666073 -117.872812 355 59ft 0kts
21-Apr-20 09:58 33.666073 -117.872812 355 59ft 0kts
21-Apr-20 09:59 33.666073 -117.872812 355 59ft 0kts
21-Apr-20 10:00 33.666073 -117.872812 355 59ft 0kts
21-Apr-20 10:01 33.666073 -117.872812 355 59ft 0kts
21-Apr-20 10:02 33.666073 -117.872812 355 59ft 0kts
21-Apr-20 10:03 33.666073 -117.872812 355 59ft 0kts
21-Apr-20 10:04 33.666073 -117.872812 355 59ft 0kts
21-Apr-20 10:05 33.666073 -117.872812 355 59ft 0kts
21-Apr-20 10:06 33.666073 -117.872812 355 59ft 0kts
21-Apr-20 10:07 33.666735 -117.873286 27 59ft 6kts
21-Apr-20 10:08 33.667829 -117.872271 40 59ft 11kts
21-Apr-20 10:09 33.671559 -117.868502 30 59ft 17kts
21-Apr-20 10:10 33.674429 -117.866890 28 59ft 11kts
21-Apr-20 10:11 33.679008 -117.863987 27 59ft 16kts
21-Apr-20 10:12 33.679958 -117.863634 299 59ft 0kts
21-Apr-20 10:13 33.679959 -117.863635 299 59ft 0kts
21-Apr-20 10:14 33.679911 -117.864293 208 59ft 0kts
21-Apr-20 10:15 33.662026 -117.876504 207 928ft 121kts
21-Apr-20 10:16 33.626525 -117.889247 187 3160ft 140kts
21-Apr-20 10:17 33.587281 -117.896440 187 5516ft 148kts
21-Apr-20 10:18 33.546198 -117.883371 150 7048ft 200kts
21-Apr-20 10:19 33.498011 -117.834871 111 7009ft 249kts
21-Apr-20 10:20 33.476404 -117.755634 80 7405ft 238kts
21-Apr-20 10:21 33.488212 -117.682604 54 8861ft 214kts
21-Apr-20 10:22 33.520890 -117.614746 55 9002ft 250kts
21-Apr-20 10:23 33.556041 -117.540820 55 9038ft 255kts
21-Apr-20 10:24 33.579481 -117.471541 101 10912ft 226kts
21-Apr-20 10:25 33.557955 -117.402341 104 12586ft 223kts
21-Apr-20 10:26 33.535559 -117.330975 104 14144ft 234kts
21-Apr-20 10:27 33.511961 -117.255973 104 15610ft 246kts
21-Apr-20 10:28 33.503658 -117.176251 82 17149ft 245kts
21-Apr-20 10:29 33.502071 -117.092475 82 18584ft 258kts
21-Apr-20 10:30 33.500277 -117.003037 84 19884ft 277kts
21-Apr-20 10:31 33.498261 -116.907623 87 21146ft 295kts
21-Apr-20 10:32 33.497062 -116.807242 87 22453ft 307kts
21-Apr-20 10:33 33.495848 -116.703278 88 23625ft 317kts
21-Apr-20 10:34 33.494483 -116.595420 88 24889ft 328kts
21-Apr-20 10:35 33.493016 -116.483938 89 26201ft 339kts
21-Apr-20 10:36 33.491401 -116.369403 90 27448ft 350kts
21-Apr-20 10:37 33.489584 -116.250704 91 28574ft 360kts
21-Apr-20 10:38 33.487686 -116.129527 92 29632ft 368kts
21-Apr-20 10:39 33.492753 -116.006254 67 30578ft 373kts
21-Apr-20 10:40 33.529017 -115.887565 66 31068ft 392kts
21-Apr-20 10:41 33.565950 -115.760873 66 31064ft 409kts
21-Apr-20 10:42 33.603583 -115.631288 66 31063ft 414kts
21-Apr-20 10:43 33.624730 -115.495814 100 31059ft 417kts
21-Apr-20 10:44 33.614960 -115.356962 93 31067ft 420kts
21-Apr-20 10:45 33.610833 -115.217953 94 31054ft 419kts
21-Apr-20 10:46 33.606518 -115.078265 96 31053ft 418kts
21-Apr-20 10:47 33.603915 -114.938231 88 31053ft 421kts
21-Apr-20 10:48 33.598163 -114.799408 98 31061ft 417kts
21-Apr-20 10:49 33.587143 -114.660434 101 30733ft 424kts
21-Apr-20 10:50 33.574414 -114.517918 101 29824ft 433kts
21-Apr-20 10:51 33.561435 -114.374413 101 28912ft 433kts
21-Apr-20 10:52 33.552431 -114.276263 101 28224ft 431kts
21-Apr-20 10:53 33.539279 -114.134225 101 27201ft 427kts
21-Apr-20 10:54 33.523087 -113.995934 108 26181ft 411kts
21-Apr-20 10:55 33.499496 -113.862971 108 25183ft 403kts
21-Apr-20 10:56 33.476166 -113.732418 108 24044ft 400kts
21-Apr-20 10:57 33.452804 -113.602483 107 22443ft 400kts
21-Apr-20 10:58 33.429582 -113.474053 107 20717ft 388kts
21-Apr-20 10:59 33.406983 -113.349863 107 19029ft 376kts
21-Apr-20 11:00 33.385118 -113.230445 106 17375ft 363kts
21-Apr-20 11:01 33.363857 -113.114943 106 15798ft 346kts
21-Apr-20 11:02 33.343414 -113.004398 106 14293ft 336kts
21-Apr-20 11:03 33.323483 -112.897229 106 12825ft 322kts
21-Apr-20 11:05 33.304320 -112.794806 106 11421ft 311kts
21-Apr-20 11:06 33.285460 -112.694554 105 10088ft 308kts
21-Apr-20 11:07 33.305553 -112.601075 59 9682ft 298kts
21-Apr-20 11:08 33.346492 -112.513858 59 8663ft 303kts
21-Apr-20 11:09 33.385298 -112.431354 59 7150ft 266kts
21-Apr-20 11:10 33.420686 -112.358086 59 5672ft 247kts
21-Apr-20 11:11 33.429026 -112.286760 94 5000ft 208kts
21-Apr-20 11:12 33.429123 -112.223915 91 4368ft 179kts
21-Apr-20 11:13 33.429011 -112.163428 89 3373ft 181kts
21-Apr-20 11:14 33.428922 -112.104869 88 2438ft 172kts
21-Apr-20 11:15 33.428867 -112.052563 89 1598ft 121kts
21-Apr-20 11:16 33.428862 -112.021726 88 1134ft 69kts
21-Apr-20 11:17 33.427747 -112.016980 261 1134ft 4kts
21-Apr-20 11:18 33.427740 -112.017225 269 1134ft 0kts
21-Apr-20 11:19 33.427748 -112.020209 270 1134ft 18kts
21-Apr-20 11:20 33.426441 -112.022803 273 1134ft 0kts
21-Apr-20 11:21 33.426441 -112.022803 273 1134ft 0kts
21-Apr-20 11:22 33.426441 -112.022803 273 1134ft 0kts

Navigation Log

Ident Type
Flight plan parsing failed, navigation log unavailable